sensor_id;sensor_type;location;lat;lon;timestamp;pressure;altitude;pressure_sealevel;temperature;humidity
49827;BME280;35715;51.570;6.036;2023-01-01T00:01:12;100774.69;;;15.32;56.64
49827;BME280;35715;51.570;6.036;2023-01-01T00:03:38;100762.59;;;15.33;57.18
49827;BME280;35715;51.570;6.036;2023-01-01T00:06:04;100782.72;;;15.37;57.95
49827;BME280;35715;51.570;6.036;2023-01-01T00:08:33;100779.75;;;15.29;56.94
49827;BME280;35715;51.570;6.036;2023-01-01T00:11:14;100769.56;;;15.34;56.81
49827;BME280;35715;51.570;6.036;2023-01-01T00:13:40;100769.78;;;15.38;57.68
49827;BME280;35715;51.570;6.036;2023-01-01T00:16:07;100780.94;;;15.36;56.37
49827;BME280;35715;51.570;6.036;2023-01-01T00:18:32;100798.31;;;15.37;56.09
49827;BME280;35715;51.570;6.036;2023-01-01T00:21:07;100782.78;;;15.38;56.04
49827;BME280;35715;51.570;6.036;2023-01-01T00:23:34;100786.41;;;15.42;56.44
49827;BME280;35715;51.570;6.036;2023-01-01T00:25:59;100786.19;;;15.37;55.66
49827;BME280;35715;51.570;6.036;2023-01-01T00:28:24;100793.19;;;15.38;55.84
49827;BME280;35715;51.570;6.036;2023-01-01T00:30:57;100793.25;;;15.40;56.05
49827;BME280;35715;51.570;6.036;2023-01-01T00:33:22;100783.81;;;15.42;56.21
49827;BME280;35715;51.570;6.036;2023-01-01T00:35:47;100784.53;;;15.39;56.08
49827;BME280;35715;51.570;6.036;2023-01-01T00:38:13;100797.41;;;15.36;56.15
49827;BME280;35715;51.570;6.036;2023-01-01T00:40:40;100779.81;;;15.31;55.90
49827;BME280;35715;51.570;6.036;2023-01-01T00:43:05;100785.25;;;15.35;56.17
49827;BME280;35715;51.570;6.036;2023-01-01T00:45:31;100790.97;;;15.28;55.39
49827;BME280;35715;51.570;6.036;2023-01-01T00:47:56;100800.69;;;15.32;55.65
49827;BME280;35715;51.570;6.036;2023-01-01T00:50:22;100781.53;;;15.30;55.91
49827;BME280;35715;51.570;6.036;2023-01-01T00:52:47;100790.31;;;15.32;55.68
49827;BME280;35715;51.570;6.036;2023-01-01T00:55:13;100784.03;;;15.29;55.19
49827;BME280;35715;51.570;6.036;2023-01-01T00:57:38;100800.56;;;15.29;55.19
49827;BME280;35715;51.570;6.036;2023-01-01T01:00:04;100775.28;;;15.26;54.46
49827;BME280;35715;51.570;6.036;2023-01-01T01:02:29;100785.09;;;15.32;55.50
49827;BME280;35715;51.570;6.036;2023-01-01T01:04:55;100785.03;;;15.31;55.01
49827;BME280;35715;51.570;6.036;2023-01-01T01:07:20;100797.31;;;15.35;55.88
49827;BME280;35715;51.570;6.036;2023-01-01T01:09:45;100794.38;;;15.27;54.32
49827;BME280;35715;51.570;6.036;2023-01-01T01:12:10;100773.66;;;15.29;54.09
49827;BME280;35715;51.570;6.036;2023-01-01T01:14:35;100787.00;;;15.36;55.08
49827;BME280;35715;51.570;6.036;2023-01-01T01:17:01;100777.38;;;15.34;54.35
49827;BME280;35715;51.570;6.036;2023-01-01T01:19:26;100791.91;;;15.30;54.00
49827;BME280;35715;51.570;6.036;2023-01-01T01:21:52;100796.09;;;15.26;54.12
49827;BME280;35715;51.570;6.036;2023-01-01T01:24:17;100789.69;;;15.20;53.96
49827;BME280;35715;51.570;6.036;2023-01-01T01:26:43;100787.22;;;15.23;54.08
49827;BME280;35715;51.570;6.036;2023-01-01T01:29:08;100792.50;;;15.24;54.55
49827;BME280;35715;51.570;6.036;2023-01-01T01:31:40;100796.91;;;15.25;54.24
49827;BME280;35715;51.570;6.036;2023-01-01T01:34:08;100792.56;;;15.26;54.74
49827;BME280;35715;51.570;6.036;2023-01-01T01:36:33;100803.38;;;15.16;53.27
49827;BME280;35715;51.570;6.036;2023-01-01T01:38:58;100829.59;;;15.20;53.18
49827;BME280;35715;51.570;6.036;2023-01-01T01:41:26;100817.19;;;15.15;53.52
49827;BME280;35715;51.570;6.036;2023-01-01T01:43:53;100819.13;;;15.19;54.12
49827;BME280;35715;51.570;6.036;2023-01-01T01:48:54;100817.97;;;15.14;53.13
49827;BME280;35715;51.570;6.036;2023-01-01T01:51:33;100822.38;;;15.15;53.90
49827;BME280;35715;51.570;6.036;2023-01-01T01:54:00;100814.50;;;15.13;53.06
49827;BME280;35715;51.570;6.036;2023-01-01T01:56:28;100817.19;;;15.15;53.33
49827;BME280;35715;51.570;6.036;2023-01-01T01:58:55;100824.03;;;15.13;52.88
49827;BME280;35715;51.570;6.036;2023-01-01T02:01:32;100833.34;;;15.09;53.35
49827;BME280;35715;51.570;6.036;2023-01-01T02:03:58;100827.13;;;15.05;52.97
49827;BME280;35715;51.570;6.036;2023-01-01T02:06:24;100835.06;;;15.08;54.31
49827;BME280;35715;51.570;6.036;2023-01-01T02:08:50;100838.41;;;15.06;53.91
49827;BME280;35715;51.570;6.036;2023-01-01T02:11:16;100835.72;;;15.04;54.24
49827;BME280;35715;51.570;6.036;2023-01-01T02:13:41;100835.50;;;15.00;53.56
49827;BME280;35715;51.570;6.036;2023-01-01T02:18:36;100832.97;;;15.01;54.20
49827;BME280;35715;51.570;6.036;2023-01-01T02:24:00;100848.66;;;15.03;54.68
49827;BME280;35715;51.570;6.036;2023-01-01T02:29:13;100847.47;;;14.96;54.02
49827;BME280;35715;51.570;6.036;2023-01-01T02:32:03;100850.06;;;14.96;54.35
49827;BME280;35715;51.570;6.036;2023-01-01T02:34:28;100838.69;;;14.94;55.01
49827;BME280;35715;51.570;6.036;2023-01-01T02:36:56;100845.44;;;14.90;54.42
49827;BME280;35715;51.570;6.036;2023-01-01T02:39:22;100856.72;;;14.91;54.83
49827;BME280;35715;51.570;6.036;2023-01-01T02:41:49;100853.97;;;14.88;54.44
49827;BME280;35715;51.570;6.036;2023-01-01T02:44:17;100853.97;;;14.88;54.87
49827;BME280;35715;51.570;6.036;2023-01-01T02:46:43;100849.22;;;14.79;54.72
49827;BME280;35715;51.570;6.036;2023-01-01T02:49:09;100854.50;;;14.81;55.13
49827;BME280;35715;51.570;6.036;2023-01-01T02:54:40;100853.50;;;14.79;54.73
49827;BME280;35715;51.570;6.036;2023-01-01T02:59:38;100838.16;;;14.83;54.71
49827;BME280;35715;51.570;6.036;2023-01-01T03:02:31;100842.31;;;14.80;54.85
49827;BME280;35715;51.570;6.036;2023-01-01T03:07:40;100847.72;;;14.84;55.03
49827;BME280;35715;51.570;6.036;2023-01-01T03:12:38;100839.78;;;14.81;54.72
49827;BME280;35715;51.570;6.036;2023-01-01T03:15:23;100832.06;;;14.83;55.40
49827;BME280;35715;51.570;6.036;2023-01-01T03:17:56;100840.59;;;14.80;55.05
49827;BME280;35715;51.570;6.036;2023-01-01T03:20:26;100838.91;;;14.81;55.46
49827;BME280;35715;51.570;6.036;2023-01-01T03:22:52;100849.38;;;14.82;55.61
49827;BME280;35715;51.570;6.036;2023-01-01T03:25:21;100855.28;;;14.80;55.85
49827;BME280;35715;51.570;6.036;2023-01-01T03:32:43;100878.81;;;14.83;56.20
49827;BME280;35715;51.570;6.036;2023-01-01T03:35:42;100882.00;;;14.77;56.55
49827;BME280;35715;51.570;6.036;2023-01-01T03:38:17;100877.72;;;14.78;56.17
49827;BME280;35715;51.570;6.036;2023-01-01T03:40:47;100890.69;;;14.78;56.81
49827;BME280;35715;51.570;6.036;2023-01-01T03:43:16;100889.56;;;14.72;57.05
49827;BME280;35715;51.570;6.036;2023-01-01T03:45:44;100875.91;;;14.77;57.43
49827;BME280;35715;51.570;6.036;2023-01-01T03:48:11;100868.06;;;14.75;57.10
49827;BME280;35715;51.570;6.036;2023-01-01T03:53:34;100869.91;;;14.78;56.92
49827;BME280;35715;51.570;6.036;2023-01-01T03:56:23;100881.91;;;14.76;57.02
49827;BME280;35715;51.570;6.036;2023-01-01T04:01:27;100879.09;;;14.71;57.01
49827;BME280;35715;51.570;6.036;2023-01-01T04:03:56;100885.09;;;14.70;57.58
49827;BME280;35715;51.570;6.036;2023-01-01T04:06:21;100900.44;;;14.65;57.83
49827;BME280;35715;51.570;6.036;2023-01-01T04:08:46;100906.63;;;14.67;57.58
49827;BME280;35715;51.570;6.036;2023-01-01T04:11:30;100905.78;;;14.68;57.95
49827;BME280;35715;51.570;6.036;2023-01-01T04:17:10;100906.19;;;14.60;58.41
49827;BME280;35715;51.570;6.036;2023-01-01T04:19:36;100900.34;;;14.64;58.32
49827;BME280;35715;51.570;6.036;2023-01-01T04:24:30;100889.16;;;14.65;58.48
49827;BME280;35715;51.570;6.036;2023-01-01T04:26:55;100916.84;;;14.64;58.84
49827;BME280;35715;51.570;6.036;2023-01-01T04:29:21;100933.31;;;14.65;58.77
49827;BME280;35715;51.570;6.036;2023-01-01T04:31:47;100928.13;;;14.65;58.79
49827;BME280;35715;51.570;6.036;2023-01-01T04:34:14;100926.47;;;14.67;59.35
49827;BME280;35715;51.570;6.036;2023-01-01T04:36:43;100914.25;;;14.64;59.42
49827;BME280;35715;51.570;6.036;2023-01-01T04:39:08;100926.25;;;14.62;59.81
49827;BME280;35715;51.570;6.036;2023-01-01T04:41:45;100909.78;;;14.62;59.71
49827;BME280;35715;51.570;6.036;2023-01-01T04:44:10;100909.50;;;14.57;60.40
49827;BME280;35715;51.570;6.036;2023-01-01T04:46:35;100893.94;;;14.57;60.95
49827;BME280;35715;51.570;6.036;2023-01-01T04:49:01;100901.31;;;14.49;60.89
49827;BME280;35715;51.570;6.036;2023-01-01T04:53:57;100902.91;;;14.47;61.49
49827;BME280;35715;51.570;6.036;2023-01-01T04:56:22;100900.31;;;14.47;61.74
49827;BME280;35715;51.570;6.036;2023-01-01T04:58:48;100916.56;;;14.43;61.65
49827;BME280;35715;51.570;6.036;2023-01-01T05:01:17;100931.47;;;14.47;62.17
49827;BME280;35715;51.570;6.036;2023-01-01T05:03:42;100927.91;;;14.45;62.16
49827;BME280;35715;51.570;6.036;2023-01-01T05:06:08;100923.28;;;14.40;61.87
49827;BME280;35715;51.570;6.036;2023-01-01T05:08:34;100931.22;;;14.43;62.25
49827;BME280;35715;51.570;6.036;2023-01-01T05:11:05;100932.06;;;14.42;62.25
49827;BME280;35715;51.570;6.036;2023-01-01T05:13:31;100933.91;;;14.44;62.43
49827;BME280;35715;51.570;6.036;2023-01-01T05:16:01;100922.56;;;14.42;61.89
49827;BME280;35715;51.570;6.036;2023-01-01T05:18:26;100923.44;;;14.43;61.74
49827;BME280;35715;51.570;6.036;2023-01-01T05:21:01;100933.91;;;14.44;61.89
49827;BME280;35715;51.570;6.036;2023-01-01T05:23:30;100952.34;;;14.49;62.18
49827;BME280;35715;51.570;6.036;2023-01-01T05:25:55;100958.44;;;14.49;62.04
49827;BME280;35715;51.570;6.036;2023-01-01T05:28:21;100968.50;;;14.43;61.95
49827;BME280;35715;51.570;6.036;2023-01-01T05:30:48;100964.19;;;14.44;62.10
49827;BME280;35715;51.570;6.036;2023-01-01T05:33:13;100967.75;;;14.46;61.92
49827;BME280;35715;51.570;6.036;2023-01-01T05:35:38;100967.56;;;14.43;62.17
49827;BME280;35715;51.570;6.036;2023-01-01T05:38:04;100981.38;;;14.42;62.35
49827;BME280;35715;51.570;6.036;2023-01-01T05:40:40;100988.34;;;14.43;62.40
49827;BME280;35715;51.570;6.036;2023-01-01T05:43:06;100994.44;;;14.43;62.60
49827;BME280;35715;51.570;6.036;2023-01-01T05:45:31;100996.97;;;14.42;62.61
49827;BME280;35715;51.570;6.036;2023-01-01T05:47:56;101002.78;;;14.37;62.79
49827;BME280;35715;51.570;6.036;2023-01-01T05:50:30;101003.75;;;14.40;62.66
49827;BME280;35715;51.570;6.036;2023-01-01T05:52:55;101003.84;;;14.41;62.69
49827;BME280;35715;51.570;6.036;2023-01-01T05:55:20;101004.00;;;14.44;62.79
49827;BME280;35715;51.570;6.036;2023-01-01T05:57:45;101011.72;;;14.43;62.50
49827;BME280;35715;51.570;6.036;2023-01-01T06:00:27;101014.56;;;14.47;62.89
49827;BME280;35715;51.570;6.036;2023-01-01T06:02:52;101024.78;;;14.44;62.74
49827;BME280;35715;51.570;6.036;2023-01-01T06:05:18;101029.34;;;14.48;62.90
49827;BME280;35715;51.570;6.036;2023-01-01T06:07:44;101044.75;;;14.45;62.57
49827;BME280;35715;51.570;6.036;2023-01-01T06:10:13;101057.63;;;14.44;62.92
49827;BME280;35715;51.570;6.036;2023-01-01T06:12:38;101056.09;;;14.47;62.87
49827;BME280;35715;51.570;6.036;2023-01-01T06:15:04;101066.31;;;14.44;62.60
49827;BME280;35715;51.570;6.036;2023-01-01T06:17:29;101062.91;;;14.45;62.96
49827;BME280;35715;51.570;6.036;2023-01-01T06:19:54;101069.72;;;14.43;62.65
49827;BME280;35715;51.570;6.036;2023-01-01T06:25:14;101073.56;;;14.50;63.28
49827;BME280;35715;51.570;6.036;2023-01-01T06:27:39;101056.75;;;14.43;62.95
49827;BME280;35715;51.570;6.036;2023-01-01T06:32:34;101067.78;;;14.39;62.94
49827;BME280;35715;51.570;6.036;2023-01-01T06:34:59;101080.84;;;14.41;62.81
49827;BME280;35715;51.570;6.036;2023-01-01T06:37:24;101075.72;;;14.42;62.98
49827;BME280;35715;51.570;6.036;2023-01-01T06:39:49;101066.41;;;14.46;62.80
49827;BME280;35715;51.570;6.036;2023-01-01T06:42:16;101069.00;;;14.46;63.09
49827;BME280;35715;51.570;6.036;2023-01-01T06:44:41;101068.19;;;14.47;63.59
49827;BME280;35715;51.570;6.036;2023-01-01T06:47:06;101079.28;;;14.44;63.46
49827;BME280;35715;51.570;6.036;2023-01-01T06:49:33;101080.91;;;14.42;63.81
49827;BME280;35715;51.570;6.036;2023-01-01T06:51:59;101094.78;;;14.43;63.92
49827;BME280;35715;51.570;6.036;2023-01-01T06:54:24;101104.75;;;14.35;63.84
49827;BME280;35715;51.570;6.036;2023-01-01T06:56:50;101110.94;;;14.37;64.51
49827;BME280;35715;51.570;6.036;2023-01-01T06:59:18;101108.34;;;14.37;64.31
49827;BME280;35715;51.570;6.036;2023-01-01T07:01:44;101132.50;;;14.36;64.68
49827;BME280;35715;51.570;6.036;2023-01-01T07:04:10;101145.03;;;14.28;66.50
49827;BME280;35715;51.570;6.036;2023-01-01T07:06:36;101148.59;;;14.30;68.67
49827;BME280;35715;51.570;6.036;2023-01-01T07:09:02;101159.25;;;14.20;70.18
49827;BME280;35715;51.570;6.036;2023-01-01T07:14:00;101186.72;;;14.01;73.86
49827;BME280;35715;51.570;6.036;2023-01-01T07:16:25;101193.34;;;13.96;75.01
49827;BME280;35715;51.570;6.036;2023-01-01T07:18:51;101191.19;;;13.89;76.05
49827;BME280;35715;51.570;6.036;2023-01-01T07:21:28;101194.41;;;13.85;76.37
49827;BME280;35715;51.570;6.036;2023-01-01T07:23:55;101201.19;;;13.83;76.14
49827;BME280;35715;51.570;6.036;2023-01-01T07:26:21;101200.03;;;13.78;76.74
49827;BME280;35715;51.570;6.036;2023-01-01T07:28:46;101202.34;;;13.73;77.84
49827;BME280;35715;51.570;6.036;2023-01-01T07:31:13;101207.38;;;13.70;79.91
49827;BME280;35715;51.570;6.036;2023-01-01T07:33:38;101226.31;;;13.69;78.37
49827;BME280;35715;51.570;6.036;2023-01-01T07:36:03;101230.38;;;13.65;79.85
49827;BME280;35715;51.570;6.036;2023-01-01T07:38:29;101236.81;;;13.57;81.02
49827;BME280;35715;51.570;6.036;2023-01-01T07:40:55;101230.66;;;13.55;80.51
49827;BME280;35715;51.570;6.036;2023-01-01T07:43:20;101232.41;;;13.56;80.28
49827;BME280;35715;51.570;6.036;2023-01-01T07:45:45;101244.31;;;13.53;81.62
49827;BME280;35715;51.570;6.036;2023-01-01T07:48:12;101259.78;;;13.51;81.91
49827;BME280;35715;51.570;6.036;2023-01-01T07:50:41;101246.81;;;13.51;81.37
49827;BME280;35715;51.570;6.036;2023-01-01T07:53:07;101257.78;;;13.47;82.68
49827;BME280;35715;51.570;6.036;2023-01-01T07:55:32;101242.94;;;13.44;82.37
49827;BME280;35715;51.570;6.036;2023-01-01T07:58:00;101253.31;;;13.44;82.24
49827;BME280;35715;51.570;6.036;2023-01-01T08:00:26;101250.59;;;13.43;82.41
49827;BME280;35715;51.570;6.036;2023-01-01T08:02:51;101258.19;;;13.40;83.08
49827;BME280;35715;51.570;6.036;2023-01-01T08:05:17;101254.63;;;13.38;82.75
49827;BME280;35715;51.570;6.036;2023-01-01T08:07:47;101248.84;;;13.42;81.76
49827;BME280;35715;51.570;6.036;2023-01-01T08:10:17;101263.06;;;13.35;83.29
49827;BME280;35715;51.570;6.036;2023-01-01T08:12:42;101264.00;;;13.36;83.05
49827;BME280;35715;51.570;6.036;2023-01-01T08:15:09;101270.94;;;13.37;83.04
49827;BME280;35715;51.570;6.036;2023-01-01T08:17:34;101268.34;;;13.37;82.76
49827;BME280;35715;51.570;6.036;2023-01-01T08:19:59;101276.03;;;13.35;83.74
49827;BME280;35715;51.570;6.036;2023-01-01T08:22:25;101283.13;;;13.38;83.71
49827;BME280;35715;51.570;6.036;2023-01-01T08:24:50;101286.50;;;13.37;83.89
49827;BME280;35715;51.570;6.036;2023-01-01T08:27:15;101283.03;;;13.36;83.63
49827;BME280;35715;51.570;6.036;2023-01-01T08:29:41;101292.41;;;13.34;83.85
49827;BME280;35715;51.570;6.036;2023-01-01T08:34:51;101290.69;;;13.35;84.18
49827;BME280;35715;51.570;6.036;2023-01-01T08:37:16;101293.38;;;13.36;83.52
49827;BME280;35715;51.570;6.036;2023-01-01T08:39:43;101287.53;;;13.39;82.92
49827;BME280;35715;51.570;6.036;2023-01-01T08:42:24;101298.78;;;13.39;83.35
49827;BME280;35715;51.570;6.036;2023-01-01T08:44:49;101321.00;;;13.36;84.07
49827;BME280;35715;51.570;6.036;2023-01-01T08:47:18;101344.34;;;13.36;84.13
49827;BME280;35715;51.570;6.036;2023-01-01T08:49:44;101347.50;;;13.31;85.13
49827;BME280;35715;51.570;6.036;2023-01-01T08:52:09;101366.31;;;13.29;85.85
49827;BME280;35715;51.570;6.036;2023-01-01T08:54:34;101367.03;;;13.26;86.21
49827;BME280;35715;51.570;6.036;2023-01-01T08:56:59;101365.03;;;13.22;87.40
49827;BME280;35715;51.570;6.036;2023-01-01T08:59:25;101377.69;;;13.18;88.51
49827;BME280;35715;51.570;6.036;2023-01-01T09:01:51;101370.72;;;13.17;88.12
49827;BME280;35715;51.570;6.036;2023-01-01T09:04:16;101377.41;;;13.13;88.82
49827;BME280;35715;51.570;6.036;2023-01-01T09:06:41;101363.41;;;13.11;88.20
49827;BME280;35715;51.570;6.036;2023-01-01T09:09:07;101382.69;;;13.14;88.85
49827;BME280;35715;51.570;6.036;2023-01-01T09:11:39;101377.97;;;13.09;90.24
49827;BME280;35715;51.570;6.036;2023-01-01T09:14:13;101360.63;;;13.08;90.01
49827;BME280;35715;51.570;6.036;2023-01-01T09:16:38;101343.31;;;13.07;89.18
49827;BME280;35715;51.570;6.036;2023-01-01T09:19:04;101345.38;;;13.12;89.17
49827;BME280;35715;51.570;6.036;2023-01-01T09:23:57;101344.22;;;13.21;88.82
49827;BME280;35715;51.570;6.036;2023-01-01T09:26:22;101351.97;;;13.21;88.91
49827;BME280;35715;51.570;6.036;2023-01-01T09:28:48;101358.88;;;13.20;89.22
49827;BME280;35715;51.570;6.036;2023-01-01T09:31:13;101388.75;;;13.15;90.22
49827;BME280;35715;51.570;6.036;2023-01-01T09:33:39;101384.03;;;13.09;91.66
49827;BME280;35715;51.570;6.036;2023-01-01T09:36:11;101366.72;;;13.08;89.88
49827;BME280;35715;51.570;6.036;2023-01-01T09:38:37;101375.50;;;13.10;90.45
49827;BME280;35715;51.570;6.036;2023-01-01T09:43:53;101379.25;;;13.16;90.27
49827;BME280;35715;51.570;6.036;2023-01-01T09:46:19;101371.50;;;13.16;90.96
49827;BME280;35715;51.570;6.036;2023-01-01T09:48:51;101376.91;;;13.19;90.11
49827;BME280;35715;51.570;6.036;2023-01-01T09:53:57;101383.47;;;13.27;89.93
49827;BME280;35715;51.570;6.036;2023-01-01T09:56:26;101383.69;;;13.30;89.38
49827;BME280;35715;51.570;6.036;2023-01-01T09:58:52;101379.81;;;13.37;89.52
49827;BME280;35715;51.570;6.036;2023-01-01T10:06:32;101369.16;;;13.45;89.63
49827;BME280;35715;51.570;6.036;2023-01-01T10:09:00;101364.97;;;13.47;89.20
49827;BME280;35715;51.570;6.036;2023-01-01T10:16:48;101374.72;;;13.52;88.51
49827;BME280;35715;51.570;6.036;2023-01-01T10:21:53;101356.88;;;13.56;87.08
49827;BME280;35715;51.570;6.036;2023-01-01T10:24:26;101357.59;;;13.54;86.50
49827;BME280;35715;51.570;6.036;2023-01-01T10:26:56;101362.69;;;13.52;86.25
49827;BME280;35715;51.570;6.036;2023-01-01T10:29:34;101353.38;;;13.56;86.20
49827;BME280;35715;51.570;6.036;2023-01-01T10:32:05;101348.78;;;13.65;85.69
49827;BME280;35715;51.570;6.036;2023-01-01T10:34:38;101355.19;;;13.70;85.21
49827;BME280;35715;51.570;6.036;2023-01-01T10:37:03;101353.56;;;13.72;84.80
49827;BME280;35715;51.570;6.036;2023-01-01T10:39:29;101356.53;;;13.78;84.37
49827;BME280;35715;51.570;6.036;2023-01-01T10:42:03;101359.31;;;13.81;84.09
49827;BME280;35715;51.570;6.036;2023-01-01T10:44:29;101355.75;;;13.79;83.46
49827;BME280;35715;51.570;6.036;2023-01-01T10:46:56;101352.25;;;13.79;83.51
49827;BME280;35715;51.570;6.036;2023-01-01T10:49:21;101361.63;;;13.77;83.70
49827;BME280;35715;51.570;6.036;2023-01-01T10:51:50;101367.28;;;13.84;82.75
49827;BME280;35715;51.570;6.036;2023-01-01T10:56:44;101366.88;;;14.20;81.93
49827;BME280;35715;51.570;6.036;2023-01-01T10:59:33;101365.53;;;14.40;81.53
49827;BME280;35715;51.570;6.036;2023-01-01T11:04:39;101382.53;;;14.50;79.26
49827;BME280;35715;51.570;6.036;2023-01-01T11:07:05;101374.56;;;14.47;78.87
49827;BME280;35715;51.570;6.036;2023-01-01T11:09:30;101373.25;;;14.53;79.13
49827;BME280;35715;51.570;6.036;2023-01-01T11:12:00;101376.03;;;14.57;78.93
49827;BME280;35715;51.570;6.036;2023-01-01T11:16:52;101379.31;;;14.54;78.74
49827;BME280;35715;51.570;6.036;2023-01-01T11:19:38;101386.94;;;14.51;78.49
49827;BME280;35715;51.570;6.036;2023-01-01T11:22:06;101398.22;;;14.51;78.90
49827;BME280;35715;51.570;6.036;2023-01-01T11:24:38;101391.69;;;14.58;78.40
49827;BME280;35715;51.570;6.036;2023-01-01T11:27:23;101390.00;;;14.59;77.77
49827;BME280;35715;51.570;6.036;2023-01-01T11:29:49;101388.84;;;14.68;78.06
49827;BME280;35715;51.570;6.036;2023-01-01T11:35:19;101402.50;;;14.79;76.95
49827;BME280;35715;51.570;6.036;2023-01-01T11:37:45;101403.16;;;14.90;76.86
49827;BME280;35715;51.570;6.036;2023-01-01T11:40:16;101402.06;;;15.01;77.05
49827;BME280;35715;51.570;6.036;2023-01-01T11:42:45;101404.03;;;15.05;75.73
49827;BME280;35715;51.570;6.036;2023-01-01T11:45:15;101409.31;;;15.07;74.26
49827;BME280;35715;51.570;6.036;2023-01-01T11:47:42;101393.72;;;14.92;74.07
49827;BME280;35715;51.570;6.036;2023-01-01T11:55:45;101387.81;;;14.80;74.94
49827;BME280;35715;51.570;6.036;2023-01-01T12:00:52;101380.00;;;14.80;73.90
49827;BME280;35715;51.570;6.036;2023-01-01T12:03:23;101367.38;;;14.86;73.94
49827;BME280;35715;51.570;6.036;2023-01-01T12:05:53;101371.97;;;14.90;74.21
49827;BME280;35715;51.570;6.036;2023-01-01T12:08:22;101373.38;;;15.00;74.96
49827;BME280;35715;51.570;6.036;2023-01-01T12:10:54;101373.03;;;14.94;73.87
49827;BME280;35715;51.570;6.036;2023-01-01T12:13:23;101375.34;;;14.89;73.49
49827;BME280;35715;51.570;6.036;2023-01-01T12:18:51;101374.22;;;14.84;74.21
49827;BME280;35715;51.570;6.036;2023-01-01T12:21:28;101378.75;;;14.88;73.78
49827;BME280;35715;51.570;6.036;2023-01-01T12:23:54;101367.47;;;14.87;73.94
49827;BME280;35715;51.570;6.036;2023-01-01T12:34:17;101392.47;;;15.00;73.15
49827;BME280;35715;51.570;6.036;2023-01-01T12:45:07;101393.91;;;14.80;73.42
49827;BME280;35715;51.570;6.036;2023-01-01T12:52:50;101389.78;;;14.99;72.63
49827;BME280;35715;51.570;6.036;2023-01-01T12:55:24;101396.16;;;15.04;73.44
49827;BME280;35715;51.570;6.036;2023-01-01T12:58:00;101391.22;;;14.94;72.91
49827;BME280;35715;51.570;6.036;2023-01-01T13:00:44;101394.59;;;14.93;72.99
49827;BME280;35715;51.570;6.036;2023-01-01T13:03:20;101396.16;;;14.89;73.34
49827;BME280;35715;51.570;6.036;2023-01-01T13:05:49;101398.47;;;14.84;73.55
49827;BME280;35715;51.570;6.036;2023-01-01T13:08:15;101386.19;;;14.82;74.04
49827;BME280;35715;51.570;6.036;2023-01-01T13:10:41;101384.94;;;14.75;74.06
49827;BME280;35715;51.570;6.036;2023-01-01T13:13:07;101385.47;;;14.69;73.80
49827;BME280;35715;51.570;6.036;2023-01-01T13:17:59;101382.69;;;14.66;74.04
49827;BME280;35715;51.570;6.036;2023-01-01T13:20:38;101373.91;;;14.64;73.71
49827;BME280;35715;51.570;6.036;2023-01-01T13:23:04;101377.31;;;14.63;74.03
49827;BME280;35715;51.570;6.036;2023-01-01T13:25:29;101375.59;;;14.64;73.81
49827;BME280;35715;51.570;6.036;2023-01-01T13:38:51;101387.31;;;14.57;73.56
49827;BME280;35715;51.570;6.036;2023-01-01T13:44:16;101370.56;;;14.52;74.19
49827;BME280;35715;51.570;6.036;2023-01-01T13:52:07;101377.84;;;14.44;74.99
49827;BME280;35715;51.570;6.036;2023-01-01T13:54:28;101372.09;;;14.35;74.78
49827;BME280;35715;51.570;6.036;2023-01-01T13:56:58;101371.31;;;14.36;75.20
49827;BME280;35715;51.570;6.036;2023-01-01T14:05:00;101370.75;;;14.27;75.52
49827;BME280;35715;51.570;6.036;2023-01-01T14:13:16;101365.28;;;14.22;75.54
49827;BME280;35715;51.570;6.036;2023-01-01T14:15:52;101365.00;;;14.17;75.63
49827;BME280;35715;51.570;6.036;2023-01-01T14:18:19;101373.41;;;14.13;75.52
49827;BME280;35715;51.570;6.036;2023-01-01T14:20:54;101379.66;;;14.17;75.87
49827;BME280;35715;51.570;6.036;2023-01-01T14:23:54;101376.97;;;14.15;75.69
49827;BME280;35715;51.570;6.036;2023-01-01T14:26:12;101390.78;;;14.14;75.79
49827;BME280;35715;51.570;6.036;2023-01-01T14:28:39;101404.34;;;14.10;76.00
49827;BME280;35715;51.570;6.036;2023-01-01T14:33:52;101412.03;;;14.09;75.67
49827;BME280;35715;51.570;6.036;2023-01-01T14:38:47;101409.53;;;14.10;75.87
49827;BME280;35715;51.570;6.036;2023-01-01T14:41:17;101405.78;;;14.05;75.26
49827;BME280;35715;51.570;6.036;2023-01-01T14:43:45;101402.16;;;14.03;75.83
49827;BME280;35715;51.570;6.036;2023-01-01T14:46:15;101394.28;;;14.01;75.57
49827;BME280;35715;51.570;6.036;2023-01-01T14:48:43;101396.19;;;14.04;75.88
49827;BME280;35715;51.570;6.036;2023-01-01T14:51:21;101395.13;;;14.00;75.40
49827;BME280;35715;51.570;6.036;2023-01-01T14:53:47;101384.63;;;13.99;76.05
49827;BME280;35715;51.570;6.036;2023-01-01T14:56:29;101391.22;;;13.94;75.69
49827;BME280;35715;51.570;6.036;2023-01-01T15:01:42;101378.16;;;13.92;75.77
49827;BME280;35715;51.570;6.036;2023-01-01T15:04:21;101378.06;;;13.91;75.48
49827;BME280;35715;51.570;6.036;2023-01-01T15:06:54;101393.44;;;13.88;76.05
49827;BME280;35715;51.570;6.036;2023-01-01T15:09:19;101389.13;;;13.88;75.70
49827;BME280;35715;51.570;6.036;2023-01-01T15:14:29;101385.47;;;13.84;75.93
49827;BME280;35715;51.570;6.036;2023-01-01T15:17:02;101388.66;;;13.80;75.76
49827;BME280;35715;51.570;6.036;2023-01-01T15:19:27;101393.13;;;13.83;75.55
49827;BME280;35715;51.570;6.036;2023-01-01T15:24:22;101406.22;;;13.84;75.82
49827;BME280;35715;51.570;6.036;2023-01-01T15:29:16;101408.69;;;13.83;75.74
49827;BME280;35715;51.570;6.036;2023-01-01T15:34:34;101407.63;;;13.79;75.81
49827;BME280;35715;51.570;6.036;2023-01-01T15:37:06;101403.22;;;13.78;75.56
49827;BME280;35715;51.570;6.036;2023-01-01T15:39:43;101398.81;;;13.77;75.73
49827;BME280;35715;51.570;6.036;2023-01-01T15:42:20;101400.63;;;13.78;75.47